createdAt,value
2018-12-13T00:02:12.070Z,101804.65
2018-12-13T00:04:44.832Z,101797.64
2018-12-13T00:07:17.423Z,101795.27
2018-12-13T00:09:50.166Z,101791.73
2018-12-13T00:12:23.822Z,101782.85
2018-12-13T00:14:56.377Z,101779.83
2018-12-13T00:17:28.910Z,101783.69
2018-12-13T00:20:01.691Z,101790.14
2018-12-13T00:22:34.283Z,101787.31
2018-12-13T00:25:06.877Z,101783.08
2018-12-13T00:27:39.411Z,101782.66
2018-12-13T00:30:11.982Z,101779.63
2018-12-13T00:32:44.584Z,101782.61
2018-12-13T00:35:17.233Z,101777.52
2018-12-13T00:37:49.768Z,101783.07
2018-12-13T00:40:22.549Z,101786.95
2018-12-13T00:42:55.086Z,101780.37
2018-12-13T00:45:27.736Z,101776.14
2018-12-13T00:48:00.345Z,101777.52
2018-12-13T00:50:33.023Z,101775.13
2018-12-13T00:53:05.659Z,101776.63
2018-12-13T00:55:38.211Z,101792.08
2018-12-13T00:58:10.892Z,101779.05
2018-12-13T01:00:43.452Z,101781.09
2018-12-13T01:03:15.981Z,101782.55
2018-12-13T01:05:48.529Z,101782.20
2018-12-13T01:08:21.071Z,101771.78
2018-12-13T01:10:53.757Z,101764.17
2018-12-13T01:13:26.290Z,101761.70
2018-12-13T01:15:58.848Z,101765.50
2018-12-13T01:18:31.368Z,101762.36
2018-12-13T01:21:03.942Z,101762.44
2018-12-13T01:23:36.513Z,101764.54
2018-12-13T01:26:09.069Z,101763.65
2018-12-13T01:28:41.595Z,101751.87
2018-12-13T01:31:14.241Z,101755.35
2018-12-13T01:33:46.741Z,101769.33
2018-12-13T01:36:19.298Z,101768.42
2018-12-13T01:38:51.839Z,101768.36
2018-12-13T01:41:24.469Z,101771.67
2018-12-13T01:43:57.123Z,101764.86
2018-12-13T01:46:29.694Z,101766.25
2018-12-13T01:49:02.229Z,101764.72
2018-12-13T01:51:34.804Z,101761.09
2018-12-13T01:54:07.339Z,101760.09
2018-12-13T01:56:39.901Z,101754.39
2018-12-13T01:59:12.442Z,101754.84
2018-12-13T02:01:45.307Z,101751.86
2018-12-13T02:04:17.852Z,101754.16
2018-12-13T02:06:50.431Z,101755.02
2018-12-13T02:09:23.174Z,101762.86
2018-12-13T02:11:55.744Z,101754.17
2018-12-13T02:14:28.326Z,101757.61
2018-12-13T02:17:01.082Z,101764.78
2018-12-13T02:19:33.679Z,101764.44
2018-12-13T02:22:06.279Z,101758.98
2018-12-13T02:24:38.803Z,101762.86
2018-12-13T02:27:11.369Z,101763.26
2018-12-13T02:29:43.895Z,101751.27
2018-12-13T02:32:16.530Z,101753.56
2018-12-13T02:34:49.145Z,101754.70
2018-12-13T02:37:21.746Z,101755.91
2018-12-13T02:39:54.278Z,101756.88
2018-12-13T02:42:26.935Z,101759.13
2018-12-13T02:44:59.490Z,101766.23
2018-12-13T02:47:32.274Z,101756.53
2018-12-13T02:50:05.333Z,101761.53
2018-12-13T02:52:37.898Z,101758.03
2018-12-13T02:55:10.449Z,101760.75
2018-12-13T02:57:43.011Z,101758.45
2018-12-13T03:00:15.540Z,101760.73
2018-12-13T03:02:48.180Z,101754.89
2018-12-13T03:05:20.766Z,101749.52
2018-12-13T03:07:53.410Z,101750.75
2018-12-13T03:10:25.953Z,101747.71
2018-12-13T03:12:58.586Z,101741.52
2018-12-13T03:15:31.116Z,101739.68
2018-12-13T03:18:03.764Z,101740.12
2018-12-13T03:20:36.301Z,101735.34
2018-12-13T03:23:08.921Z,101741.84
2018-12-13T03:25:41.454Z,101727.72
2018-12-13T03:28:14.019Z,101727.17
2018-12-13T03:30:46.561Z,101725.50
2018-12-13T03:33:19.160Z,101721.64
2018-12-13T03:35:51.714Z,101725.02
2018-12-13T03:38:24.273Z,101717.52
2018-12-13T03:40:56.811Z,101712.09
2018-12-13T03:43:29.390Z,101715.72
2018-12-13T03:46:01.931Z,101705.69
2018-12-13T03:48:34.594Z,101702.80
2018-12-13T03:51:07.177Z,101706.70
2018-12-13T03:53:39.798Z,101700.37
2018-12-13T03:56:12.333Z,101702.27
2018-12-13T03:58:44.988Z,101707.05
2018-12-13T04:01:17.523Z,101698.73
2018-12-13T04:03:50.082Z,101695.09
2018-12-13T04:06:22.602Z,101694.19
2018-12-13T04:08:55.251Z,101692.45
2018-12-13T04:11:27.788Z,101689.43
2018-12-13T04:14:00.423Z,101695.39
2018-12-13T04:16:32.966Z,101692.88
2018-12-13T04:19:05.627Z,101688.87
2018-12-13T04:21:38.220Z,101690.50
2018-12-13T04:24:10.893Z,101690.56
2018-12-13T04:26:43.448Z,101685.91
2018-12-13T04:29:16.176Z,101676.73
2018-12-13T04:31:48.764Z,101678.47
2018-12-13T04:34:21.452Z,101679.62
2018-12-13T04:36:53.992Z,101680.52
2018-12-13T04:39:26.637Z,101677.62
2018-12-13T04:41:59.179Z,101681.58
2018-12-13T04:44:31.993Z,101677.72
2018-12-13T04:47:04.540Z,101676.91
2018-12-13T04:49:37.291Z,101673.48
2018-12-13T04:52:09.826Z,101678.84
2018-12-13T04:54:42.421Z,101670.95
2018-12-13T04:57:14.970Z,101679.41
2018-12-13T04:59:47.544Z,101677.83
2018-12-13T05:02:20.072Z,101676.34
2018-12-13T05:04:52.649Z,101674.70
2018-12-13T05:07:25.192Z,101670.47
2018-12-13T05:09:57.897Z,101670.47
2018-12-13T05:12:30.565Z,101672.33
2018-12-13T05:15:03.146Z,101673.70
2018-12-13T05:17:35.692Z,101664.41
2018-12-13T05:20:08.326Z,101663.77
2018-12-13T05:22:42.602Z,101661.69
2018-12-13T05:25:15.261Z,101657.89
2018-12-13T05:27:47.810Z,101653.30
2018-12-13T05:30:20.360Z,101646.12
2018-12-13T05:32:52.887Z,101649.23
2018-12-13T05:35:25.451Z,101646.05
2018-12-13T05:37:57.983Z,101641.84
2018-12-13T05:40:30.547Z,101644.15
2018-12-13T05:43:03.120Z,101635.23
2018-12-13T05:45:35.708Z,101641.36
2018-12-13T05:48:08.269Z,101637.08
2018-12-13T05:50:40.966Z,101636.65
2018-12-13T05:53:13.498Z,101631.66
2018-12-13T05:55:46.070Z,101631.83
2018-12-13T05:58:18.698Z,101635.82
2018-12-13T06:00:51.345Z,101635.95
2018-12-13T06:03:23.959Z,101638.39
2018-12-13T06:05:56.593Z,101642.74
2018-12-13T06:08:29.117Z,101644.62
2018-12-13T06:11:01.768Z,101643.89
2018-12-13T06:13:34.290Z,101637.75
2018-12-13T06:16:06.922Z,101637.25
2018-12-13T06:18:39.455Z,101635.31
2018-12-13T06:21:12.095Z,101643.13
2018-12-13T06:23:44.649Z,101644.86
2018-12-13T06:26:17.349Z,101650.47
2018-12-13T06:28:49.875Z,101643.36
2018-12-13T06:31:22.520Z,101646.19
2018-12-13T06:33:55.114Z,101648.80
2018-12-13T06:36:27.670Z,101642.77
2018-12-13T06:39:00.198Z,101646.93
2018-12-13T06:41:32.951Z,101640.69
2018-12-13T06:44:05.472Z,101640.51
2018-12-13T06:46:38.118Z,101643.36
2018-12-13T06:49:10.668Z,101646.20
2018-12-13T06:51:43.262Z,101642.20
2018-12-13T06:54:15.929Z,101639.73
2018-12-13T06:56:48.506Z,101639.56
2018-12-13T06:59:21.040Z,101645.45
2018-12-13T07:01:53.813Z,101650.84
2018-12-13T07:04:26.444Z,101649.98
2018-12-13T07:06:59.149Z,101647.41
2018-12-13T07:09:31.694Z,101650.66
2018-12-13T07:12:04.260Z,101646.06
2018-12-13T07:14:36.764Z,101650.72
2018-12-13T07:17:09.425Z,101648.17
2018-12-13T07:19:41.950Z,101642.58
2018-12-13T07:22:14.519Z,101645.53
2018-12-13T07:24:47.064Z,101640.88
2018-12-13T07:27:19.725Z,101638.45
2018-12-13T07:29:52.271Z,101639.61
2018-12-13T07:32:24.848Z,101645.05
2018-12-13T07:35:01.280Z,101647.39
2018-12-13T07:37:32.007Z,101646.50
2018-12-13T07:40:06.664Z,101647.92
2018-12-13T07:42:39.410Z,101645.16
2018-12-13T07:45:12.255Z,101644.75
2018-12-13T07:47:44.962Z,101651.92
2018-12-13T07:50:17.510Z,101647.56
2018-12-13T07:52:50.247Z,101644.76
2018-12-13T07:55:22.785Z,101647.34
2018-12-13T07:57:55.368Z,101645.17
2018-12-13T08:00:27.919Z,101641.19
2018-12-13T08:03:00.472Z,101641.43
2018-12-13T08:05:33.037Z,101648.42
2018-12-13T08:08:06.026Z,101643.16
2018-12-13T08:10:38.607Z,101644.81
2018-12-13T08:13:11.425Z,101657.06
2018-12-13T08:15:44.110Z,101659.13
2018-12-13T08:18:16.776Z,101654.70
2018-12-13T08:20:49.302Z,101653.33
2018-12-13T08:23:21.958Z,101660.01
2018-12-13T08:25:54.502Z,101664.73
2018-12-13T08:28:27.089Z,101655.80
2018-12-13T08:30:59.632Z,101655.91
2018-12-13T08:33:32.200Z,101650.53
2018-12-13T08:36:04.896Z,101655.97
2018-12-13T08:38:37.582Z,101649.95
2018-12-13T08:41:10.120Z,101656.78
2018-12-13T08:43:42.776Z,101665.23
2018-12-13T08:46:15.319Z,101663.71
2018-12-13T08:48:47.872Z,101654.03
2018-12-13T08:51:20.429Z,101659.84
2018-12-13T08:53:53.058Z,101657.14
2018-12-13T08:56:25.620Z,101649.31
2018-12-13T08:58:58.277Z,101657.94
2018-12-13T09:01:30.823Z,101649.64
2018-12-13T09:04:03.395Z,101646.84
2018-12-13T09:06:35.956Z,101651.08
2018-12-13T09:09:08.591Z,101644.95
2018-12-13T09:11:41.161Z,101649.81
2018-12-13T09:14:13.809Z,101656.89
2018-12-13T09:16:46.368Z,101648.80
2018-12-13T09:19:18.947Z,101642.36
2018-12-13T09:21:51.540Z,101648.24
2018-12-13T09:24:24.137Z,101634.98
2018-12-13T09:26:56.729Z,101641.19
2018-12-13T09:29:29.339Z,101633.22
2018-12-13T09:32:01.889Z,101636.42
2018-12-13T09:34:34.479Z,101642.19
2018-12-13T09:37:07.127Z,101634.42
2018-12-13T09:39:39.694Z,101643.48
2018-12-13T09:42:12.240Z,101640.25
2018-12-13T09:44:44.877Z,101641.09
2018-12-13T09:47:17.423Z,101643.04
2018-12-13T09:49:49.987Z,101641.93
2018-12-13T09:52:22.544Z,101630.84
2018-12-13T09:54:55.100Z,101638.66
2018-12-13T09:57:31.015Z,101632.59
2018-12-13T10:00:06.284Z,101627.63
2018-12-13T10:02:38.820Z,101624.81
2018-12-13T10:05:11.394Z,101624.38
2018-12-13T10:07:45.016Z,101618.34
2018-12-13T10:10:17.860Z,101620.81
2018-12-13T10:12:50.430Z,101614.71
2018-12-13T10:15:23.080Z,101618.71
2018-12-13T10:17:55.653Z,101611.14
2018-12-13T10:20:28.213Z,101614.91
2018-12-13T10:23:00.748Z,101604.22
2018-12-13T10:25:33.469Z,101605.64
2018-12-13T10:28:06.021Z,101603.56
2018-12-13T10:30:38.667Z,101610.76
2018-12-13T10:33:11.220Z,101606.57
2018-12-13T10:35:43.806Z,101602.52
2018-12-13T10:38:16.324Z,101603.52
2018-12-13T10:40:49.893Z,101598.95
2018-12-13T10:43:22.433Z,101597.68
2018-12-13T10:45:55.018Z,101597.69
2018-12-13T10:48:27.619Z,101593.79
2018-12-13T10:51:00.183Z,101600.13
2018-12-13T10:53:32.719Z,101598.58
2018-12-13T10:56:05.533Z,101591.86
2018-12-13T10:58:38.077Z,101597.22
2018-12-13T11:01:16.139Z,101592.86
2018-12-13T11:03:48.712Z,101600.55
2018-12-13T11:06:21.309Z,101597.27
2018-12-13T11:08:59.217Z,101599.20
2018-12-13T11:11:28.602Z,101598.91
2018-12-13T11:14:01.229Z,101600.41
2018-12-13T11:16:33.870Z,101592.15
2018-12-13T11:19:06.547Z,101596.47
2018-12-13T11:21:39.112Z,101583.55
2018-12-13T11:24:11.674Z,101589.05
2018-12-13T11:26:44.359Z,101589.94
2018-12-13T11:29:28.776Z,101587.95
2018-12-13T11:32:01.364Z,101591.72
2018-12-13T11:34:33.908Z,101589.37
2018-12-13T11:37:06.510Z,101586.94
2018-12-13T11:39:39.047Z,101588.25
2018-12-13T11:42:11.641Z,101585.72
2018-12-13T11:44:44.370Z,101577.83
2018-12-13T11:47:17.299Z,101580.83
2018-12-13T11:49:50.043Z,101578.02
2018-12-13T11:52:22.733Z,101576.66
2018-12-13T11:54:56.226Z,101583.27
2018-12-13T11:57:28.908Z,101576.93
2018-12-13T12:00:01.475Z,101579.51
2018-12-13T12:02:34.163Z,101584.39
2018-12-13T12:05:06.723Z,101574.16
2018-12-13T12:07:39.332Z,101581.10
2018-12-13T12:10:11.991Z,101575.27
2018-12-13T12:12:44.551Z,101566.47
2018-12-13T12:15:17.252Z,101570.31
2018-12-13T12:17:50.128Z,101557.23
2018-12-13T12:20:22.674Z,101569.93
2018-12-13T12:22:55.321Z,101568.95
2018-12-13T12:25:27.866Z,101561.98
2018-12-13T12:28:00.422Z,101566.22
2018-12-13T12:30:32.961Z,101559.19
2018-12-13T12:33:05.682Z,101560.92
2018-12-13T12:35:38.216Z,101556.57
2018-12-13T12:38:10.769Z,101553.27
2018-12-13T12:40:43.300Z,101544.17
2018-12-13T12:43:15.982Z,101540.61
2018-12-13T12:45:48.584Z,101539.94
2018-12-13T12:48:21.133Z,101538.38
2018-12-13T12:50:53.674Z,101532.50
2018-12-13T12:53:26.251Z,101535.49
2018-12-13T12:55:58.895Z,101528.69
2018-12-13T12:58:31.447Z,101530.64
2018-12-13T13:01:04.022Z,101529.38
2018-12-13T13:03:36.801Z,101526.75
2018-12-13T13:06:09.356Z,101534.45
2018-12-13T13:08:42.008Z,101529.38
2018-12-13T13:11:14.645Z,101526.45
2018-12-13T13:13:47.436Z,101524.72
2018-12-13T13:16:19.987Z,101523.53
2018-12-13T13:18:52.672Z,101527.26
2018-12-13T13:21:25.219Z,101521.20
2018-12-13T13:23:57.945Z,101521.24
2018-12-13T13:26:30.549Z,101524.20
2018-12-13T13:29:03.344Z,101524.50
2018-12-13T13:31:35.871Z,101520.51
2018-12-13T13:34:08.570Z,101526.95
2018-12-13T13:36:41.101Z,101520.60
2018-12-13T13:39:13.672Z,101527.75
2018-12-13T13:41:46.205Z,101526.06
2018-12-13T13:44:19.399Z,101521.92
2018-12-13T13:46:52.871Z,101521.68
2018-12-13T13:49:25.550Z,101528.17
2018-12-13T13:51:58.097Z,101526.58
2018-12-13T13:54:30.673Z,101529.61
2018-12-13T13:57:03.631Z,101523.89
2018-12-13T13:59:36.303Z,101526.25
2018-12-13T14:02:08.873Z,101521.92
2018-12-13T14:04:41.446Z,101516.05
2018-12-13T14:07:13.988Z,101510.98
2018-12-13T14:09:46.584Z,101508.07
2018-12-13T14:12:19.156Z,101511.69
2018-12-13T14:14:51.713Z,101507.89
2018-12-13T14:17:24.252Z,101506.04
2018-12-13T14:19:56.858Z,101495.95
2018-12-13T14:22:29.384Z,101492.34
2018-12-13T14:25:01.992Z,101486.94
2018-12-13T14:27:34.561Z,101484.77
2018-12-13T14:30:07.415Z,101484.30
2018-12-13T14:32:39.947Z,101485.72
2018-12-13T14:35:12.503Z,101492.52
2018-12-13T14:37:45.056Z,101492.44
2018-12-13T14:40:17.696Z,101494.21
2018-12-13T14:42:50.225Z,101495.07
2018-12-13T14:45:22.788Z,101486.88
2018-12-13T14:47:55.325Z,101497.40
2018-12-13T14:50:28.001Z,101495.63
2018-12-13T14:53:00.522Z,101499.39
2018-12-13T14:55:33.427Z,101500.94
2018-12-13T14:58:05.981Z,101494.13
2018-12-13T15:00:38.630Z,101501.58
2018-12-13T15:03:11.167Z,101498.67
2018-12-13T15:05:43.821Z,101497.55
2018-12-13T15:08:16.362Z,101502.77
2018-12-13T15:10:48.943Z,101496.59
2018-12-13T15:13:21.471Z,101506.16
2018-12-13T15:15:54.118Z,101510.21
2018-12-13T15:18:26.649Z,101513.97
2018-12-13T15:20:59.196Z,101520.95
2018-12-13T15:23:31.739Z,101515.81
2018-12-13T15:26:04.306Z,101521.87
2018-12-13T15:28:36.878Z,101521.83
2018-12-13T15:31:09.501Z,101527.64
2018-12-13T15:33:42.043Z,101532.02
2018-12-13T15:36:14.685Z,101533.97
2018-12-13T15:38:47.225Z,101525.58
2018-12-13T15:41:19.839Z,101528.86
2018-12-13T15:43:52.374Z,101526.97
2018-12-13T15:46:25.120Z,101532.08
2018-12-13T15:48:57.663Z,101531.86
2018-12-13T15:51:30.256Z,101534.08
2018-12-13T15:54:02.804Z,101527.84
2018-12-13T15:56:35.480Z,101521.09
2018-12-13T15:59:08.048Z,101520.36
2018-12-13T16:01:40.708Z,101514.65
2018-12-13T16:04:13.238Z,101511.77
2018-12-13T16:06:45.836Z,101510.38
2018-12-13T16:09:18.426Z,101512.16
2018-12-13T16:11:51.014Z,101513.05
2018-12-13T16:14:23.544Z,101505.90
2018-12-13T16:16:57.528Z,101506.80
2018-12-13T16:19:30.278Z,101509.52
2018-12-13T16:22:02.850Z,101509.53
2018-12-13T16:24:35.452Z,101512.91
2018-12-13T16:27:08.437Z,101509.99
2018-12-13T16:29:40.984Z,101502.30
2018-12-13T16:32:13.629Z,101500.64
2018-12-13T16:34:46.148Z,101500.70
2018-12-13T16:37:18.795Z,101507.97
2018-12-13T16:39:51.334Z,101504.20
2018-12-13T16:42:23.907Z,101502.52
2018-12-13T16:44:56.805Z,101507.25
2018-12-13T16:47:29.513Z,101502.22
2018-12-13T16:50:02.091Z,101500.61
2018-12-13T16:52:34.715Z,101503.40
2018-12-13T16:55:07.224Z,101506.28
2018-12-13T16:57:39.870Z,101508.48
2018-12-13T17:00:12.529Z,101497.06
2018-12-13T17:02:45.100Z,101497.09
2018-12-13T17:05:17.635Z,101505.56
2018-12-13T17:07:50.191Z,101500.06
2018-12-13T17:10:22.736Z,101494.14
2018-12-13T17:12:55.285Z,101506.83
2018-12-13T17:15:27.843Z,101498.88
2018-12-13T17:18:00.396Z,101501.30
2018-12-13T17:20:32.974Z,101489.48
2018-12-13T17:23:05.538Z,101504.30
2018-12-13T17:25:38.164Z,101506.70
2018-12-13T17:28:10.819Z,101504.25
2018-12-13T17:30:43.371Z,101507.29
2018-12-13T17:33:16.019Z,101504.30
2018-12-13T17:35:48.573Z,101496.77
2018-12-13T17:38:22.573Z,101504.03
2018-12-13T17:40:55.376Z,101504.92
2018-12-13T17:43:27.957Z,101506.58
2018-12-13T17:46:00.502Z,101514.48
2018-12-13T17:48:33.077Z,101512.25
2018-12-13T17:51:05.645Z,101512.05
2018-12-13T17:53:38.212Z,101510.78
2018-12-13T17:56:10.759Z,101509.19
2018-12-13T17:58:43.332Z,101507.63
2018-12-13T18:01:15.873Z,101508.43
2018-12-13T18:03:48.530Z,101509.33
2018-12-13T18:06:21.073Z,101508.06
2018-12-13T18:08:53.638Z,101505.48
2018-12-13T18:11:26.170Z,101503.36
2018-12-13T18:13:58.751Z,101508.56
2018-12-13T18:16:31.309Z,101509.28
2018-12-13T18:19:03.925Z,101509.62
2018-12-13T18:21:36.576Z,101508.81
2018-12-13T18:24:09.237Z,101516.05
2018-12-13T18:26:41.859Z,101516.66
2018-12-13T18:29:14.427Z,101515.73
2018-12-13T18:31:46.957Z,101517.60
2018-12-13T18:34:19.522Z,101518.87
2018-12-13T18:36:52.135Z,101517.98
2018-12-13T18:39:24.790Z,101518.78
2018-12-13T18:41:57.439Z,101520.19
2018-12-13T18:44:30.007Z,101519.30
2018-12-13T18:47:02.564Z,101515.11
2018-12-13T18:49:35.374Z,101520.13
2018-12-13T18:52:08.819Z,101517.60
2018-12-13T18:54:41.546Z,101521.68
2018-12-13T18:57:14.074Z,101521.22
2018-12-13T18:59:46.641Z,101525.39
2018-12-13T19:02:19.178Z,101535.64
2018-12-13T19:04:51.777Z,101524.69
2018-12-13T19:07:24.336Z,101534.83
2018-12-13T19:09:56.888Z,101536.43
2018-12-13T19:12:29.423Z,101538.30
2018-12-13T19:15:02.029Z,101537.55
2018-12-13T19:17:34.573Z,101531.98
2018-12-13T19:20:07.327Z,101526.42
2018-12-13T19:22:39.931Z,101527.28
2018-12-13T19:25:12.483Z,101527.66
2018-12-13T19:27:45.020Z,101534.88
2018-12-13T19:30:17.689Z,101533.52
2018-12-13T19:32:50.255Z,101529.81
2018-12-13T19:35:22.829Z,101523.97
2018-12-13T19:37:55.372Z,101528.44
2018-12-13T19:40:28.028Z,101526.67
2018-12-13T19:43:00.548Z,101525.41
2018-12-13T19:45:33.532Z,101527.59
2018-12-13T19:48:06.283Z,101530.11
2018-12-13T19:50:39.302Z,101524.81
2018-12-13T19:53:12.166Z,101525.14
2018-12-13T19:55:44.735Z,101534.91
2018-12-13T19:58:17.332Z,101531.83
2018-12-13T20:00:49.895Z,101546.37
2018-12-13T20:03:22.427Z,101551.34
2018-12-13T20:05:55.084Z,101545.46
2018-12-13T20:08:27.618Z,101546.17
2018-12-13T20:11:00.202Z,101545.37
2018-12-13T20:13:32.748Z,101544.91
2018-12-13T20:16:05.557Z,101551.80
2018-12-13T20:18:38.136Z,101553.16
2018-12-13T20:21:10.737Z,101555.04
2018-12-13T20:23:43.273Z,101560.16
2018-12-13T20:26:15.854Z,101558.84
2018-12-13T20:28:48.396Z,101561.88
2018-12-13T20:31:20.977Z,101555.53
2018-12-13T20:33:53.568Z,101559.69
2018-12-13T20:36:26.287Z,101557.36
2018-12-13T20:38:58.922Z,101561.51
2018-12-13T20:41:31.627Z,101558.08
2018-12-13T20:44:04.294Z,101560.98
2018-12-13T20:46:37.090Z,101559.89
2018-12-13T20:49:09.642Z,101562.20
2018-12-13T20:51:42.207Z,101570.31
2018-12-13T20:54:14.813Z,101562.69
2018-12-13T20:56:47.410Z,101565.49
2018-12-13T20:59:20.019Z,101572.11
2018-12-13T21:01:52.738Z,101573.81
2018-12-13T21:04:25.266Z,101573.30
2018-12-13T21:07:03.503Z,101577.67
2018-12-13T21:09:36.092Z,101572.83
2018-12-13T21:12:08.845Z,101576.19
2018-12-13T21:14:41.526Z,101586.07
2018-12-13T21:17:14.105Z,101581.08
2018-12-13T21:19:46.642Z,101582.84
2018-12-13T21:22:19.203Z,101575.80
2018-12-13T21:24:51.756Z,101569.48
2018-12-13T21:27:24.426Z,101564.88
2018-12-13T21:29:56.954Z,101573.73
2018-12-13T21:32:29.515Z,101574.15
2018-12-13T21:35:02.217Z,101570.81
2018-12-13T21:37:34.795Z,101572.15
2018-12-13T21:40:09.619Z,101568.02
2018-12-13T21:42:43.212Z,101572.36
2018-12-13T21:45:15.754Z,101564.38
2018-12-13T21:47:48.327Z,101565.77
2018-12-13T21:50:20.876Z,101569.98
2018-12-13T21:52:53.522Z,101573.70
2018-12-13T21:55:26.059Z,101566.34
2018-12-13T21:57:58.645Z,101572.31
2018-12-13T22:00:31.186Z,101568.59
2018-12-13T22:03:03.843Z,101566.13
2018-12-13T22:05:36.380Z,101564.66
2018-12-13T22:08:08.937Z,101563.47
2018-12-13T22:10:41.507Z,101563.05
2018-12-13T22:13:14.179Z,101566.91
2018-12-13T22:15:46.714Z,101566.28
2018-12-13T22:18:19.301Z,101568.47
2018-12-13T22:20:51.844Z,101565.47
2018-12-13T22:23:24.440Z,101568.55
2018-12-13T22:25:57.138Z,101571.43
2018-12-13T22:28:29.720Z,101563.49
2018-12-13T22:31:02.256Z,101568.62
2018-12-13T22:33:34.901Z,101567.77
2018-12-13T22:36:07.448Z,101569.59
2018-12-13T22:38:40.104Z,101566.23
2018-12-13T22:41:12.705Z,101564.82
2018-12-13T22:43:45.415Z,101571.50
2018-12-13T22:46:17.969Z,101564.60
2018-12-13T22:48:50.542Z,101570.02
2018-12-13T22:51:23.092Z,101565.30
2018-12-13T22:53:55.676Z,101573.96
2018-12-13T22:56:28.227Z,101573.45
2018-12-13T22:59:00.903Z,101561.80
2018-12-13T23:01:33.477Z,101574.11
2018-12-13T23:04:06.100Z,101577.55
2018-12-13T23:06:38.630Z,101574.08
2018-12-13T23:09:11.288Z,101569.37
2018-12-13T23:11:43.834Z,101561.72
2018-12-13T23:14:16.425Z,101567.34
2018-12-13T23:16:49.011Z,101561.92
2018-12-13T23:19:21.804Z,101558.63
2018-12-13T23:21:54.370Z,101564.55
2018-12-13T23:24:27.042Z,101564.12
2018-12-13T23:27:00.468Z,101561.16
2018-12-13T23:29:33.275Z,101563.80
2018-12-13T23:32:05.812Z,101560.88
2018-12-13T23:34:38.382Z,101560.50
2018-12-13T23:37:11.310Z,101569.72
2018-12-13T23:39:43.959Z,101565.56
2018-12-13T23:42:16.722Z,101568.47
2018-12-13T23:44:49.363Z,101570.62
2018-12-13T23:47:21.923Z,101568.58
2018-12-13T23:49:54.868Z,101573.22
2018-12-13T23:52:27.450Z,101573.22
2018-12-13T23:55:00.059Z,101564.23
2018-12-13T23:57:32.794Z,101569.61
